createdAt,value
2017-06-09T00:00:10.428Z,19.6
2017-06-09T00:01:20.783Z,19.56
2017-06-09T00:02:31.128Z,19.53
2017-06-09T00:03:41.476Z,19.55
2017-06-09T00:04:51.817Z,19.52
2017-06-09T00:06:01.872Z,19.43
2017-06-09T00:07:12.271Z,19.35
2017-06-09T00:08:22.317Z,19.31
2017-06-09T00:09:32.672Z,19.32
2017-06-09T00:10:43.037Z,19.34
2017-06-09T00:11:53.078Z,19.31
2017-06-09T00:13:03.124Z,19.24
2017-06-09T00:14:12.866Z,19.3
2017-06-09T00:15:23.248Z,19.17
2017-06-09T00:16:32.982Z,19.09
2017-06-09T00:17:43.331Z,19.09
2017-06-09T00:18:53.684Z,19.06
2017-06-09T00:20:03.738Z,19.05
2017-06-09T00:21:14.093Z,18.97
2017-06-09T00:22:24.482Z,19.02
2017-06-09T00:23:34.848Z,18.96
2017-06-09T00:24:45.204Z,18.93
2017-06-09T00:25:55.234Z,18.89
2017-06-09T00:27:05.578Z,18.89
2017-06-09T00:28:15.997Z,18.87
2017-06-09T00:29:26.377Z,18.9
2017-06-09T00:30:36.737Z,18.94
2017-06-09T00:31:46.769Z,18.9
2017-06-09T00:32:57.117Z,18.89
2017-06-09T00:34:07.480Z,18.87
2017-06-09T00:35:17.518Z,18.79
2017-06-09T00:36:27.540Z,18.89
2017-06-09T00:37:37.969Z,18.91
2017-06-09T00:38:48.309Z,18.76
2017-06-09T00:39:58.694Z,18.76
2017-06-09T00:41:09.028Z,18.75
2017-06-09T00:42:19.375Z,18.78
2017-06-09T00:43:29.402Z,18.72
2017-06-09T00:44:39.447Z,18.68
2017-06-09T00:45:49.844Z,18.61
2017-06-09T00:47:00.241Z,18.6
2017-06-09T00:48:10.586Z,18.53
2017-06-09T00:49:20.945Z,18.47
2017-06-09T00:50:31.291Z,18.47
2017-06-09T00:51:41.639Z,18.44
2017-06-09T00:52:51.381Z,18.23
2017-06-09T00:54:01.442Z,18.36
2017-06-09T00:55:11.785Z,18.27
2017-06-09T00:56:22.140Z,18.26
2017-06-09T00:57:32.487Z,18.27
2017-06-09T00:58:42.844Z,18.21
2017-06-09T00:59:53.204Z,18.23
2017-06-09T01:01:03.251Z,18.23
2017-06-09T01:02:13.595Z,18.17
2017-06-09T01:03:24.088Z,18.24
2017-06-09T01:04:33.807Z,18.14
2017-06-09T01:05:43.840Z,18.16
2017-06-09T01:06:53.882Z,18.08
2017-06-09T01:08:03.928Z,18.05
2017-06-09T01:09:14.315Z,18.1
2017-06-09T01:10:24.664Z,18.03
2017-06-09T01:11:35.034Z,18.05
2017-06-09T01:12:45.392Z,18.06
2017-06-09T01:13:55.738Z,18.02
2017-06-09T01:15:06.153Z,17.98
2017-06-09T01:16:16.506Z,18.02
2017-06-09T01:17:26.865Z,17.96
2017-06-09T01:18:37.221Z,17.95
2017-06-09T01:19:47.563Z,17.94
2017-06-09T01:20:57.601Z,17.8
2017-06-09T01:22:07.952Z,17.77
2017-06-09T01:23:17.982Z,17.79
2017-06-09T01:24:28.333Z,17.81
2017-06-09T01:25:38.670Z,17.76
2017-06-09T01:26:49.027Z,17.63
2017-06-09T01:27:59.372Z,17.69
2017-06-09T01:29:09.405Z,17.63
2017-06-09T01:30:19.741Z,17.52
2017-06-09T01:31:30.094Z,17.55
2017-06-09T01:32:40.186Z,17.45
2017-06-09T01:33:50.529Z,17.45
2017-06-09T01:35:00.860Z,17.43
2017-06-09T01:36:11.218Z,17.46
2017-06-09T01:37:21.556Z,17.42
2017-06-09T01:38:31.939Z,17.39
2017-06-09T01:39:41.986Z,17.38
2017-06-09T01:40:52.368Z,17.43
2017-06-09T01:42:02.725Z,17.38
2017-06-09T01:43:13.066Z,17.35
2017-06-09T01:44:23.454Z,17.39
2017-06-09T01:45:33.804Z,17.25
2017-06-09T01:46:44.161Z,17.21
2017-06-09T01:47:54.504Z,17.24
2017-06-09T01:49:04.860Z,17.2
2017-06-09T01:50:15.205Z,17.21
2017-06-09T01:51:25.551Z,17.13
2017-06-09T01:52:36.002Z,17.13
2017-06-09T01:53:46.348Z,17.05
2017-06-09T01:54:56.703Z,17.02
2017-06-09T01:56:07.085Z,17.03
2017-06-09T01:57:17.423Z,16.95
2017-06-09T01:58:27.471Z,16.99
2017-06-09T01:59:37.807Z,16.95
2017-06-09T02:00:48.151Z,16.92
2017-06-09T02:01:58.548Z,16.92
2017-06-09T02:03:08.892Z,16.92
2017-06-09T02:04:18.623Z,16.88
2017-06-09T02:05:28.967Z,16.91
2017-06-09T02:06:39.013Z,16.81
2017-06-09T02:07:49.043Z,16.81
2017-06-09T02:08:59.060Z,16.77
2017-06-09T02:10:09.423Z,16.67
2017-06-09T02:11:19.454Z,16.72
2017-06-09T02:12:29.490Z,16.7
2017-06-09T02:13:39.578Z,16.72
2017-06-09T02:14:49.298Z,16.62
2017-06-09T02:15:59.358Z,16.63
2017-06-09T02:17:09.711Z,16.62
2017-06-09T02:18:20.059Z,16.59
2017-06-09T02:19:30.086Z,16.59
2017-06-09T02:20:40.113Z,16.55
2017-06-09T02:21:50.450Z,16.57
2017-06-09T02:23:00.797Z,16.44
2017-06-09T02:24:10.833Z,16.48
2017-06-09T02:25:21.217Z,16.44
2017-06-09T02:26:31.547Z,16.48
2017-06-09T02:27:41.899Z,16.44
2017-06-09T02:28:51.933Z,16.45
2017-06-09T02:30:02.284Z,16.42
2017-06-09T02:31:12.630Z,16.36
2017-06-09T02:32:22.356Z,16.48
2017-06-09T02:33:32.717Z,16.32
2017-06-09T02:34:43.071Z,16.48
2017-06-09T02:35:53.111Z,16.42
2017-06-09T02:37:03.207Z,16.4
2017-06-09T02:38:13.554Z,16.34
2017-06-09T02:39:23.905Z,16.36
2017-06-09T02:40:34.255Z,16.33
2017-06-09T02:41:44.628Z,16.3
2017-06-09T02:42:55.034Z,16.37
2017-06-09T02:44:05.075Z,16.34
2017-06-09T02:45:15.419Z,16.22
2017-06-09T02:46:25.762Z,16.3
2017-06-09T02:47:36.100Z,16.32
2017-06-09T02:48:46.496Z,16.33
2017-06-09T02:49:56.853Z,16.34
2017-06-09T02:51:07.209Z,16.3
2017-06-09T02:52:17.242Z,16.3
2017-06-09T02:53:27.586Z,16.26
2017-06-09T02:54:37.934Z,16.26
2017-06-09T02:55:48.276Z,16.22
2017-06-09T02:56:58.302Z,16.27
2017-06-09T02:58:08.659Z,16.22
2017-06-09T02:59:19.012Z,16.22
2017-06-09T03:00:29.397Z,16.21
2017-06-09T03:01:39.734Z,16.25
2017-06-09T03:33:06.106Z,13.36
2017-06-09T03:34:16.450Z,13.42
2017-06-09T03:35:26.476Z,13.32
2017-06-09T03:36:36.512Z,13.32
2017-06-09T03:37:46.855Z,13.53
2017-06-09T03:38:57.251Z,13.57
2017-06-09T03:40:07.588Z,13.7
2017-06-09T03:41:17.316Z,13.9
2017-06-09T03:42:27.359Z,14.02
2017-06-09T03:43:37.705Z,14.21
2017-06-09T03:44:47.782Z,14.45
2017-06-09T03:45:57.178Z,14.53
2017-06-09T03:47:07.534Z,14.75
2017-06-09T03:48:17.886Z,14.94
2017-06-09T03:49:27.964Z,15.12
2017-06-09T03:50:38.342Z,15.31
2017-06-09T03:51:48.691Z,15.56
2017-06-09T03:52:59.037Z,15.67
2017-06-09T03:54:09.379Z,15.8
2017-06-09T03:55:19.767Z,15.89
2017-06-09T03:56:30.181Z,15.91
2017-06-09T03:57:40.540Z,16.18
2017-06-09T03:58:50.900Z,16.25
2017-06-09T04:00:00.934Z,16.34
2017-06-09T04:01:11.286Z,16.37
2017-06-09T04:02:21.624Z,16.44
2017-06-09T04:03:31.655Z,16.51
2017-06-09T04:04:42.007Z,16.57
2017-06-09T04:05:52.079Z,16.65
2017-06-09T04:07:02.123Z,16.76
2017-06-09T04:08:12.512Z,16.87
2017-06-09T04:09:22.853Z,16.95
2017-06-09T04:10:32.875Z,17.07
2017-06-09T04:11:42.927Z,17.15
2017-06-09T04:12:52.641Z,17.18
2017-06-09T04:14:02.996Z,17.15
2017-06-09T04:15:12.721Z,17.36
2017-06-09T04:16:23.067Z,17.49
2017-06-09T04:17:33.416Z,18.13
2017-06-09T04:18:43.772Z,20.25
2017-06-09T04:19:53.543Z,22.36
2017-06-09T04:21:03.605Z,23.78
2017-06-09T04:22:13.955Z,25.14
2017-06-09T04:23:24.307Z,26.15
2017-06-09T04:24:34.339Z,26.91
2017-06-09T04:25:44.673Z,27.76
2017-06-09T04:26:54.705Z,28.41
2017-06-09T04:28:05.048Z,28.98
2017-06-09T04:29:15.392Z,29.45
2017-06-09T04:30:25.735Z,29.91
2017-06-09T04:31:35.836Z,30.45
2017-06-09T04:32:46.172Z,30.86
2017-06-09T04:33:55.891Z,31.28
2017-06-09T04:35:06.235Z,31.58
2017-06-09T04:36:16.582Z,31.81
2017-06-09T04:37:26.940Z,32.13
2017-06-09T04:38:37.292Z,32.49
2017-06-09T04:39:47.325Z,32.74
2017-06-09T04:40:57.358Z,33.02
2017-06-09T04:42:07.400Z,33.21
2017-06-09T04:43:17.758Z,33.47
2017-06-09T04:44:27.802Z,33.63
2017-06-09T04:45:38.144Z,33.68
2017-06-09T04:46:48.514Z,33.97
2017-06-09T04:47:58.857Z,34.08
2017-06-09T04:49:09.216Z,34.22
2017-06-09T04:50:19.565Z,34.32
2017-06-09T04:51:29.618Z,34.56
2017-06-09T04:52:39.974Z,34.87
2017-06-09T04:53:50.013Z,35.12
2017-06-09T04:55:00.106Z,35.2
2017-06-09T04:56:10.474Z,35.26
2017-06-09T04:57:20.559Z,35.27
2017-06-09T04:58:30.614Z,35.34
2017-06-09T04:59:40.980Z,35.35
2017-06-09T05:00:51.393Z,35.42
2017-06-09T05:02:01.442Z,35.49
2017-06-09T05:03:11.178Z,35.46
2017-06-09T05:04:21.220Z,35.46
2017-06-09T05:05:31.251Z,35.6
2017-06-09T05:06:41.060Z,35.52
2017-06-09T05:07:51.120Z,35.52
2017-06-09T05:09:00.846Z,35.57
2017-06-09T05:10:10.888Z,35.71
2017-06-09T05:11:21.351Z,35.79
2017-06-09T05:12:31.442Z,35.72
2017-06-09T05:13:41.184Z,35.69
2017-06-09T05:14:50.926Z,35.57
2017-06-09T05:16:01.279Z,35.53
2017-06-09T05:17:11.647Z,35.43
2017-06-09T05:18:21.735Z,35.33
2017-06-09T05:19:32.085Z,35.27
2017-06-09T05:20:42.465Z,35.12
2017-06-09T05:21:52.819Z,35.02
2017-06-09T05:23:03.193Z,34.86
2017-06-09T05:24:13.575Z,34.77
2017-06-09T05:25:23.927Z,34.83
2017-06-09T05:26:33.969Z,34.74
2017-06-09T05:27:43.727Z,34.77
2017-06-09T05:28:53.774Z,34.61
2017-06-09T05:30:04.191Z,34.54
2017-06-09T05:31:14.268Z,34.39
2017-06-09T05:32:24.622Z,34.39
2017-06-09T05:33:34.656Z,34.3
2017-06-09T05:34:44.396Z,34.27
2017-06-09T05:35:54.172Z,34.33
2017-06-09T05:37:03.610Z,34.4
2017-06-09T05:38:13.947Z,34.41
2017-06-09T05:39:23.685Z,34.59
2017-06-09T05:40:34.032Z,34.72
2017-06-09T05:41:44.128Z,34.78
2017-06-09T05:42:54.174Z,34.58
2017-06-09T05:44:04.221Z,33.89
2017-06-09T05:45:14.578Z,33.26
2017-06-09T05:46:24.605Z,32.96
2017-06-09T05:47:34.656Z,32.38
2017-06-09T05:48:45.004Z,32.19
2017-06-09T05:49:55.360Z,31.9
2017-06-09T05:51:05.092Z,31.77
2017-06-09T05:52:15.448Z,31.77
2017-06-09T05:53:25.815Z,31.63
2017-06-09T05:54:36.219Z,31.49
2017-06-09T05:55:46.264Z,31.36
2017-06-09T05:56:56.302Z,30.88
2017-06-09T05:58:06.658Z,30.67
2017-06-09T05:59:16.768Z,30.29
2017-06-09T06:00:27.121Z,29.75
2017-06-09T06:01:37.484Z,29.65
2017-06-09T06:02:47.521Z,29.36
2017-06-09T06:03:57.567Z,29.45
2017-06-09T06:05:07.627Z,29.52
2017-06-09T06:06:17.691Z,29.79
2017-06-09T06:07:28.038Z,29.91
2017-06-09T06:08:38.393Z,30.18
2017-06-09T06:09:48.438Z,30.32
2017-06-09T06:10:58.546Z,30.49
2017-06-09T06:12:08.907Z,30.51
2017-06-09T06:13:19.255Z,30.32
2017-06-09T06:14:29.611Z,30.04
2017-06-09T06:15:39.663Z,30.04
2017-06-09T06:16:50.060Z,30.07
2017-06-09T06:18:00.427Z,29.98
2017-06-09T06:19:10.798Z,29.95
2017-06-09T06:20:20.848Z,30.06
2017-06-09T06:21:30.892Z,30.07
2017-06-09T06:22:41.231Z,29.97
2017-06-09T06:23:51.586Z,30.04
2017-06-09T06:25:01.940Z,29.94
2017-06-09T06:26:12.317Z,29.87
2017-06-09T06:27:22.681Z,29.79
2017-06-09T06:28:32.422Z,29.77
2017-06-09T06:29:42.784Z,29.75
2017-06-09T06:30:52.813Z,29.75
2017-06-09T06:32:03.180Z,29.61
2017-06-09T06:33:13.537Z,29.52
2017-06-09T06:34:23.937Z,29.42
2017-06-09T06:35:33.658Z,29.24
2017-06-09T06:36:44.017Z,29.02
2017-06-09T06:37:53.762Z,28.83
2017-06-09T06:39:03.785Z,28.72
2017-06-09T06:40:13.888Z,28.51
2017-06-09T06:41:24.254Z,28.46
2017-06-09T06:42:34.610Z,28.28
2017-06-09T06:43:44.963Z,28.36
2017-06-09T06:44:55.030Z,28.28
2017-06-09T06:46:05.456Z,28.3
2017-06-09T06:47:15.499Z,28.2
2017-06-09T06:48:25.853Z,28.2
2017-06-09T06:49:36.204Z,28.11
2017-06-09T06:50:46.257Z,27.9
2017-06-09T06:51:56.673Z,27.91
2017-06-09T06:53:06.710Z,27.87
2017-06-09T06:54:17.063Z,27.62
2017-06-09T06:55:27.414Z,27.51
2017-06-09T06:56:37.778Z,27.41
2017-06-09T06:57:48.184Z,27.38
2017-06-09T06:58:58.534Z,27.33
2017-06-09T07:00:08.896Z,27.26
2017-06-09T07:01:19.257Z,27.09
2017-06-09T07:02:29.290Z,27.13
2017-06-09T07:03:39.344Z,27.11
2017-06-09T07:04:49.398Z,27.08
2017-06-09T07:05:59.751Z,27.05
2017-06-09T07:07:10.133Z,26.93
2017-06-09T07:08:20.474Z,26.91
2017-06-09T07:09:30.880Z,27
2017-06-09T07:10:41.222Z,26.96
2017-06-09T07:11:51.004Z,26.93
2017-06-09T07:13:00.745Z,26.94
2017-06-09T07:14:11.097Z,26.87
2017-06-09T07:15:21.140Z,26.87
2017-06-09T07:16:31.301Z,26.76
2017-06-09T07:17:41.658Z,26.75
2017-06-09T07:18:51.709Z,26.75
2017-06-09T07:20:01.430Z,26.67
2017-06-09T07:21:11.473Z,26.68
2017-06-09T07:22:21.608Z,26.61
2017-06-09T07:23:31.649Z,26.57
2017-06-09T07:24:42.013Z,26.63
2017-06-09T07:25:52.371Z,26.61
2017-06-09T07:27:02.173Z,26.71
2017-06-09T07:28:12.536Z,26.68
2017-06-09T07:29:22.901Z,26.78
2017-06-09T07:30:32.962Z,26.81
2017-06-09T07:31:43.319Z,26.82
2017-06-09T07:32:53.413Z,26.97
2017-06-09T07:34:03.793Z,26.94
2017-06-09T07:35:13.833Z,26.93
2017-06-09T07:36:23.563Z,26.94
2017-06-09T07:37:33.904Z,26.94
2017-06-09T07:38:44.315Z,26.97
2017-06-09T07:39:54.081Z,26.97
2017-06-09T07:41:04.453Z,26.94
2017-06-09T07:42:14.801Z,27.08
2017-06-09T07:43:25.151Z,27.15
2017-06-09T07:44:35.569Z,27.12
2017-06-09T07:45:45.917Z,27.23
2017-06-09T07:46:55.963Z,27.27
2017-06-09T07:48:05.989Z,27.36
2017-06-09T07:49:16.329Z,27.33
2017-06-09T07:50:26.125Z,27.38
2017-06-09T07:51:36.174Z,27.37
2017-06-09T07:52:45.900Z,27.38
2017-06-09T07:53:55.933Z,27.45
2017-06-09T07:55:06.282Z,27.51
2017-06-09T07:56:16.679Z,27.61
2017-06-09T07:57:27.030Z,27.49
2017-06-09T07:58:37.385Z,27.66
2017-06-09T07:59:47.111Z,27.66
2017-06-09T08:00:57.465Z,27.65
2017-06-09T08:02:07.499Z,27.71
2017-06-09T08:03:17.837Z,27.81
2017-06-09T08:04:27.882Z,27.84
2017-06-09T08:05:38.230Z,27.83
2017-06-09T08:06:48.264Z,27.87
2017-06-09T08:07:58.616Z,27.91
2017-06-09T08:09:08.971Z,27.87
2017-06-09T08:10:19.327Z,27.96
2017-06-09T08:11:29.698Z,28.08
2017-06-09T08:12:39.741Z,28.14
2017-06-09T08:13:50.393Z,28.2
2017-06-09T08:15:00.754Z,28.21
2017-06-09T08:16:10.796Z,28.33
2017-06-09T08:17:21.152Z,28.31
2017-06-09T08:18:31.532Z,28.2
2017-06-09T08:19:41.948Z,28.42
2017-06-09T08:20:52.295Z,28.41
2017-06-09T08:22:02.654Z,28.36
2017-06-09T08:23:13.008Z,28.33
2017-06-09T08:24:23.353Z,28.43
2017-06-09T08:25:33.700Z,28.31
2017-06-09T08:26:44.042Z,28.42
2017-06-09T08:27:54.085Z,28.45
2017-06-09T08:29:04.429Z,28.48
2017-06-09T08:30:14.795Z,28.67
2017-06-09T08:31:25.208Z,28.64
2017-06-09T08:32:35.577Z,28.64
2017-06-09T08:33:45.924Z,28.65
2017-06-09T08:34:56.281Z,28.67
2017-06-09T08:36:06.014Z,28.76
2017-06-09T08:37:16.430Z,28.68
2017-06-09T08:38:26.150Z,28.8
2017-06-09T08:39:35.891Z,28.83
2017-06-09T08:40:46.244Z,28.82
2017-06-09T08:41:56.599Z,28.79
2017-06-09T08:43:06.673Z,28.86
2017-06-09T08:44:16.708Z,28.85
2017-06-09T08:45:27.066Z,28.9
2017-06-09T08:46:37.420Z,29.08
2017-06-09T08:47:47.793Z,29.08
2017-06-09T08:48:57.891Z,29.15
2017-06-09T08:50:08.245Z,29.18
2017-06-09T08:51:18.308Z,29.18
2017-06-09T08:52:28.671Z,29.14
2017-06-09T08:53:39.031Z,29.21
2017-06-09T08:54:49.451Z,29.29
2017-06-09T08:55:59.481Z,29.28
2017-06-09T08:57:09.833Z,29.29
2017-06-09T08:58:20.186Z,29.32
2017-06-09T08:59:30.221Z,29.33
2017-06-09T09:00:40.755Z,29.36
2017-06-09T09:01:51.131Z,29.45
2017-06-09T09:03:00.876Z,29.4
2017-06-09T09:04:10.917Z,29.43
2017-06-09T09:05:21.278Z,29.55
2017-06-09T09:06:31.680Z,29.45
2017-06-09T09:07:42.041Z,29.39
2017-06-09T09:08:52.396Z,29.45
2017-06-09T09:10:02.761Z,29.43
2017-06-09T09:11:13.125Z,29.45
2017-06-09T09:12:23.506Z,29.51
2017-06-09T09:13:33.859Z,29.43
2017-06-09T09:14:44.215Z,29.52
2017-06-09T09:15:54.574Z,29.45
2017-06-09T09:17:04.925Z,29.45
2017-06-09T09:18:15.286Z,29.52
2017-06-09T09:19:25.647Z,29.54
2017-06-09T09:20:36.008Z,29.61
2017-06-09T09:21:46.370Z,29.7
2017-06-09T09:22:56.769Z,29.75
2017-06-09T09:24:07.189Z,29.76
2017-06-09T09:25:17.245Z,29.84
2017-06-09T09:26:27.390Z,29.73
2017-06-09T09:27:37.737Z,29.77
2017-06-09T09:28:48.107Z,29.84
2017-06-09T09:29:58.562Z,29.88
2017-06-09T09:31:08.916Z,29.85
2017-06-09T09:32:19.282Z,29.95
2017-06-09T09:33:29.638Z,29.89
2017-06-09T09:34:39.679Z,30.02
2017-06-09T09:35:49.780Z,30.07
2017-06-09T09:37:00.138Z,30.02
2017-06-09T09:38:10.485Z,30.03
2017-06-09T09:39:20.607Z,30.07
2017-06-09T09:40:30.958Z,30.14
2017-06-09T09:41:40.740Z,30.18
2017-06-09T09:42:51.077Z,30.25
2017-06-09T09:44:01.428Z,30.26
2017-06-09T09:45:11.481Z,30.24
2017-06-09T09:46:21.829Z,30.16
2017-06-09T09:47:32.210Z,30.26
2017-06-09T09:48:42.261Z,30.29
2017-06-09T09:49:52.608Z,30.24
2017-06-09T09:51:02.656Z,30.22
2017-06-09T09:52:12.716Z,30.25
2017-06-09T09:53:22.799Z,30.26
2017-06-09T09:54:33.193Z,30.28
2017-06-09T09:55:43.263Z,30.34
2017-06-09T09:56:53.316Z,30.34
2017-06-09T09:58:03.676Z,30.45
2017-06-09T09:59:13.777Z,30.35
2017-06-09T10:00:24.129Z,30.42
2017-06-09T10:01:34.496Z,30.44
2017-06-09T10:02:44.852Z,30.48
2017-06-09T10:03:55.213Z,30.52
2017-06-09T10:05:05.001Z,30.52
2017-06-09T10:06:15.367Z,30.59
2017-06-09T10:07:25.720Z,30.69
2017-06-09T10:08:35.761Z,30.73
2017-06-09T10:09:45.803Z,30.77
2017-06-09T10:10:55.917Z,30.84
2017-06-09T10:12:06.028Z,30.79
2017-06-09T10:13:16.069Z,30.7
2017-06-09T10:14:26.424Z,30.75
2017-06-09T10:15:36.151Z,30.73
2017-06-09T10:16:46.230Z,30.66
2017-06-09T10:17:56.581Z,30.67
2017-06-09T10:19:06.934Z,30.73
2017-06-09T10:20:16.978Z,30.69
2017-06-09T10:21:27.340Z,30.71
2017-06-09T10:22:37.374Z,30.77
2017-06-09T10:23:47.416Z,30.75
2017-06-09T10:24:57.459Z,30.85
2017-06-09T10:26:07.535Z,30.88
2017-06-09T10:27:17.894Z,30.88
2017-06-09T10:28:28.057Z,30.77
2017-06-09T10:29:38.096Z,30.77
2017-06-09T10:30:48.450Z,30.84
2017-06-09T10:31:58.183Z,30.99
2017-06-09T10:33:08.544Z,31.04
2017-06-09T10:34:18.641Z,31.08
2017-06-09T10:35:29.032Z,31.07
2017-06-09T10:36:39.375Z,31.18
2017-06-09T10:37:49.730Z,31.16
2017-06-09T10:38:59.768Z,31.21
2017-06-09T10:40:10.201Z,31.26
2017-06-09T10:41:20.565Z,31.16
2017-06-09T10:42:30.919Z,31.16
2017-06-09T10:43:41.704Z,31.23
2017-06-09T10:44:51.761Z,31.15
2017-06-09T10:46:02.164Z,31.28
2017-06-09T10:47:12.510Z,31.37
2017-06-09T10:48:22.858Z,31.4
2017-06-09T10:49:33.219Z,31.44
2017-06-09T10:50:43.590Z,31.52
2017-06-09T10:51:54.012Z,31.52
2017-06-09T10:53:04.373Z,31.7
2017-06-09T10:54:14.430Z,31.8
2017-06-09T10:55:24.788Z,31.67
2017-06-09T10:56:35.159Z,31.8
2017-06-09T10:57:45.552Z,31.81
2017-06-09T10:58:55.916Z,31.78
2017-06-09T11:00:06.270Z,31.88
2017-06-09T11:01:16.622Z,31.91
2017-06-09T11:02:26.956Z,31.9
2017-06-09T11:03:36.744Z,31.98
2017-06-09T11:04:47.150Z,31.93
2017-06-09T11:05:57.208Z,31.9
2017-06-09T11:07:07.266Z,32
2017-06-09T11:08:17.309Z,32.05
2017-06-09T11:09:27.713Z,32.09
2017-06-09T11:10:38.107Z,32.13
2017-06-09T11:11:48.478Z,32.17
2017-06-09T11:12:58.222Z,32.19
2017-06-09T11:14:08.643Z,32.1
2017-06-09T11:15:19.072Z,32.28
2017-06-09T11:16:29.118Z,32.24
2017-06-09T11:17:39.467Z,32.25
2017-06-09T11:18:49.557Z,32.39
2017-06-09T11:19:59.918Z,32.28
2017-06-09T11:21:10.285Z,32.23
2017-06-09T11:22:20.639Z,32.16
2017-06-09T11:23:30.376Z,32.09
2017-06-09T11:24:40.751Z,32.19
2017-06-09T11:25:50.489Z,32.24
2017-06-09T11:27:00.989Z,32.43
2017-06-09T11:28:11.341Z,32.27
2017-06-09T11:29:21.708Z,32.32
2017-06-09T11:30:32.071Z,32.43
2017-06-09T11:31:42.118Z,32.35
2017-06-09T11:32:52.227Z,32.49
2017-06-09T11:34:02.574Z,32.46
2017-06-09T11:35:12.918Z,32.61
2017-06-09T11:36:23.281Z,32.59
2017-06-09T11:37:33.318Z,32.53
2017-06-09T11:38:43.728Z,32.61
2017-06-09T11:39:54.075Z,32.52
2017-06-09T11:41:04.411Z,32.47
2017-06-09T11:42:14.139Z,32.39
2017-06-09T11:43:24.492Z,32.42
2017-06-09T11:44:34.876Z,32.39
2017-06-09T11:45:45.237Z,32.38
2017-06-09T11:46:55.598Z,32.46
2017-06-09T11:48:05.943Z,32.35
2017-06-09T11:49:16.329Z,32.46
2017-06-09T11:50:26.758Z,32.49
2017-06-09T11:51:37.122Z,32.42
2017-06-09T11:52:47.154Z,32.35
2017-06-09T11:53:57.512Z,32.39
2017-06-09T11:55:07.874Z,32.39
2017-06-09T11:56:17.650Z,32.39
2017-06-09T11:57:28.017Z,32.34
2017-06-09T11:58:38.081Z,32.37
2017-06-09T11:59:48.493Z,32.43
2017-06-09T12:00:58.860Z,32.47
2017-06-09T12:02:08.602Z,32.38
2017-06-09T12:03:18.955Z,32.35
2017-06-09T12:04:29.320Z,32.25
2017-06-09T12:05:39.669Z,32.31
2017-06-09T12:06:49.395Z,32.25
2017-06-09T12:07:59.163Z,32.17
2017-06-09T12:09:09.533Z,32.13
2017-06-09T12:10:19.898Z,32.09
2017-06-09T12:11:29.934Z,32.08
2017-06-09T12:12:39.969Z,32.1
2017-06-09T12:13:50.360Z,32.09
2017-06-09T12:15:00.703Z,32.12
2017-06-09T12:16:11.081Z,32.15
2017-06-09T12:17:21.166Z,32.13
2017-06-09T12:18:31.226Z,32.19
2017-06-09T12:19:41.354Z,32.2
2017-06-09T12:20:51.731Z,32.37
2017-06-09T12:22:02.078Z,32.39
2017-06-09T12:23:12.430Z,32.5
2017-06-09T12:24:22.767Z,32.5
2017-06-09T12:25:32.870Z,32.47
2017-06-09T12:26:43.221Z,32.52
2017-06-09T12:27:53.254Z,32.52
2017-06-09T12:29:03.627Z,32.5
2017-06-09T12:30:13.983Z,32.5
2017-06-09T12:31:24.591Z,32.37
2017-06-09T12:32:34.935Z,32.34
2017-06-09T12:33:45.291Z,32.39
2017-06-09T12:34:55.338Z,32.38
2017-06-09T12:36:05.701Z,32.5
2017-06-09T12:37:16.079Z,32.5
2017-06-09T12:38:26.470Z,32.49
2017-06-09T12:39:36.807Z,32.53
2017-06-09T12:40:47.179Z,32.47
2017-06-09T12:41:57.546Z,32.52
2017-06-09T12:43:07.390Z,32.47
2017-06-09T12:44:17.450Z,32.39
2017-06-09T12:45:27.808Z,32.45
2017-06-09T12:46:37.871Z,32.38
2017-06-09T12:47:47.919Z,32.37
2017-06-09T12:48:58.334Z,32.47
2017-06-09T12:50:08.484Z,32.34
2017-06-09T12:51:18.539Z,32.49
2017-06-09T12:52:28.876Z,32.49
2017-06-09T12:53:38.908Z,32.43
2017-06-09T12:54:49.333Z,32.47
2017-06-09T12:55:59.706Z,32.49
2017-06-09T12:57:09.757Z,32.52
2017-06-09T12:58:19.496Z,32.46
2017-06-09T12:59:29.843Z,32.52
2017-06-09T13:00:39.926Z,32.34
2017-06-09T13:01:50.299Z,32.39
2017-06-09T13:03:00.657Z,32.43
2017-06-09T13:04:11.020Z,32.46
2017-06-09T13:05:21.056Z,32.49
2017-06-09T13:06:30.883Z,32.42
2017-06-09T13:07:41.268Z,32.52
2017-06-09T13:08:51.661Z,32.46
2017-06-09T13:10:02.008Z,32.5
2017-06-09T13:11:12.373Z,32.5
2017-06-09T13:12:22.748Z,32.46
2017-06-09T13:13:33.133Z,32.5
2017-06-09T13:14:43.497Z,32.47
2017-06-09T13:15:53.866Z,32.62
2017-06-09T13:17:03.918Z,32.56
2017-06-09T13:18:14.339Z,32.68
2017-06-09T13:19:24.746Z,32.57
2017-06-09T13:20:34.789Z,32.49
2017-06-09T13:21:45.155Z,32.5
2017-06-09T13:22:55.199Z,32.56
2017-06-09T13:24:05.602Z,32.65
2017-06-09T13:25:15.975Z,32.64
2017-06-09T13:26:26.017Z,32.62
2017-06-09T13:27:36.375Z,32.61
2017-06-09T13:28:46.739Z,32.57
2017-06-09T13:29:57.092Z,32.68
2017-06-09T13:31:07.435Z,32.64
2017-06-09T13:32:17.799Z,32.52
2017-06-09T13:33:28.159Z,32.42
2017-06-09T13:34:38.210Z,32.5
2017-06-09T13:35:48.256Z,32.47
2017-06-09T13:36:58.307Z,32.42
2017-06-09T13:38:08.045Z,32.39
2017-06-09T13:39:18.398Z,32.35
2017-06-09T13:40:28.746Z,32.34
2017-06-09T13:41:39.159Z,32.35
2017-06-09T13:42:49.213Z,32.39
2017-06-09T13:43:59.611Z,32.47
2017-06-09T13:45:09.980Z,32.52
2017-06-09T13:46:19.746Z,32.43
2017-06-09T13:47:30.144Z,32.39
2017-06-09T13:48:40.194Z,32.45
2017-06-09T13:49:50.230Z,32.35
2017-06-09T13:51:00.618Z,32.43
2017-06-09T13:52:10.989Z,32.39
2017-06-09T13:53:20.764Z,32.38
2017-06-09T13:54:30.802Z,32.42
2017-06-09T13:55:41.164Z,32.37
2017-06-09T13:56:51.217Z,32.38
2017-06-09T13:58:00.956Z,32.32
2017-06-09T13:59:11.379Z,32.32
2017-06-09T14:00:21.748Z,32.34
2017-06-09T14:01:31.789Z,32.34
2017-06-09T14:02:42.147Z,32.39
2017-06-09T14:03:52.189Z,32.46
2017-06-09T14:05:02.609Z,32.46
2017-06-09T14:06:12.957Z,32.49
2017-06-09T14:07:23.009Z,32.62
2017-06-09T14:08:33.375Z,32.5
2017-06-09T14:09:43.736Z,32.5
2017-06-09T14:10:54.141Z,32.62
2017-06-09T14:12:04.497Z,32.67
2017-06-09T14:13:14.850Z,32.61
2017-06-09T14:14:24.592Z,32.71
2017-06-09T14:15:34.985Z,32.69
2017-06-09T14:16:45.005Z,32.69
2017-06-09T14:17:55.066Z,32.67
2017-06-09T14:19:05.108Z,32.71
2017-06-09T14:20:14.534Z,32.71
2017-06-09T14:21:24.899Z,32.68
2017-06-09T14:22:35.258Z,32.61
2017-06-09T14:23:45.635Z,32.62
2017-06-09T14:24:56.008Z,32.65
2017-06-09T14:26:06.388Z,32.65
2017-06-09T14:27:16.747Z,32.67
2017-06-09T14:28:27.160Z,32.61
2017-06-09T14:29:37.531Z,32.53
2017-06-09T14:30:47.600Z,32.47
2017-06-09T14:31:58.258Z,32.46
2017-06-09T14:33:08.642Z,32.38
2017-06-09T14:34:19.296Z,32.42
2017-06-09T14:35:29.332Z,32.39
2017-06-09T14:36:39.717Z,32.28
2017-06-09T14:37:50.243Z,32.13
2017-06-09T14:39:00.634Z,32.15
2017-06-09T14:40:11.003Z,32.16
2017-06-09T14:41:21.051Z,32.13
2017-06-09T14:42:31.445Z,32.12
2017-06-09T14:43:41.785Z,32.12
2017-06-09T14:44:52.148Z,32.17
2017-06-09T14:46:02.498Z,32.16
2017-06-09T14:47:12.855Z,32.13
2017-06-09T14:48:23.211Z,32.15
2017-06-09T14:49:33.275Z,32.08
2017-06-09T14:50:43.327Z,32.12
2017-06-09T14:51:53.740Z,32
2017-06-09T14:53:04.119Z,31.98
2017-06-09T14:54:13.841Z,31.97
2017-06-09T14:55:24.234Z,31.95
2017-06-09T14:56:34.283Z,31.93
2017-06-09T14:57:44.699Z,31.82
2017-06-09T14:58:54.444Z,31.86
2017-06-09T15:00:04.519Z,31.93
2017-06-09T15:01:14.876Z,31.95
2017-06-09T15:02:25.228Z,32.03
2017-06-09T15:03:35.623Z,32.01
2017-06-09T15:04:45.365Z,32.05
2017-06-09T15:05:55.722Z,31.98
2017-06-09T15:07:06.092Z,32
2017-06-09T15:08:16.465Z,31.97
2017-06-09T15:09:26.875Z,32.08
2017-06-09T15:10:37.249Z,32.01
2017-06-09T15:11:47.296Z,31.95
2017-06-09T15:12:57.345Z,31.94
2017-06-09T15:14:07.704Z,31.95
2017-06-09T15:15:17.793Z,31.95
2017-06-09T15:16:28.158Z,31.91
2017-06-09T15:17:38.220Z,31.9
2017-06-09T15:18:47.651Z,31.9
2017-06-09T15:19:58.007Z,31.87
2017-06-09T15:21:07.738Z,31.82
2017-06-09T15:22:18.108Z,31.81
2017-06-09T15:23:28.478Z,31.74
2017-06-09T15:24:38.841Z,31.87
2017-06-09T15:25:49.199Z,31.8
2017-06-09T15:26:59.609Z,31.81
2017-06-09T15:28:09.973Z,31.81
2017-06-09T15:29:19.719Z,31.87
2017-06-09T15:30:29.775Z,31.88
2017-06-09T15:31:39.827Z,31.93
2017-06-09T15:32:50.208Z,31.9
2017-06-09T15:34:00.574Z,31.98
2017-06-09T15:35:10.638Z,31.97
2017-06-09T15:36:21.011Z,32.05